SBCR/CMG METAR and TAF weather

Enter ICAO airport designator
Station Type Date Time Source
SBCR METAR 2019/12/11 12:00 UTC NOAA

SBCR 111200Z 03005KT 9999 SCT013 27/25 Q1009


Station Type Date Time Source
SBCR Decoded METAR 2019/12/11 12:00 UTC NOAA

Corumba, Brazil (SBCR) 19-05S 057-30W
Dec 11, 2019 - 07:00 AM EST / 2019.12.11 1200 UTC
Wind: from the NNE (030 degrees) at 6 MPH (5 KT):0
Visibility: greater than 7 mile(s):0
Sky conditions: partly cloudy
Temperature: 80 F (27 C)
Dew Point: 77 F (25 C)
Relative Humidity: 88%
Pressure (altimeter): 29.80 in. Hg (1009 hPa)
ob: SBCR 111200Z 03005KT 9999 SCT013 27/25 Q1009
cycle: 12

Station Type Date Time Source
SBCR TAF 2019/12/11 12:57 UTC NOAA

TAF SBCR 110900Z 1112/1212 04007KT 9999 BKN020 TX32/1117Z TN26/1208Z
BECMG 1113/1115 SCT025
TEMPO 1115/1120 32008KT SCT030 FEW035TCU
BECMG 1123/1201 BKN020 PROB40 1207/1209 6000 BKN010
RMK PCX

Example: see airport list